Time;durP1;ratioP1;P1;durP2;ratioP2;P2;SDS_P1;SDS_P2;PMS_P1;PMS_P2;Temp;Humidity;BMP_temperature;BMP_pressure;BME280_temperature;BME280_humidity;BME280_pressure;Samples;Min_cycle;Max_cycle;Signal;HPM_P1;HPM_P2
2022/11/30 00:01:26;;;;;;;;;;;;;;;20.11;29.91;98343.66;5056484;28;963;-74
2022/11/30 00:03:52;;;;;;;;;;;;;;;20.28;30.21;98339.75;5056987;28;996;-74
2022/11/30 00:06:21;;;;;;;;;;;;;;;20.47;29.56;98346.75;5056974;28;915;-75
2022/11/30 00:08:47;;;;;;;;;;;;;;;20.60;29.44;98343.31;5038646;28;1050;-74
2022/11/30 00:11:13;;;;;;;;;;;;;;;20.71;29.11;98344.72;5056570;28;1000;-74
2022/11/30 00:13:39;;;;;;;;;;;;;;;20.73;29.26;98339.44;5056617;28;973;-74
2022/11/30 00:16:05;;;;;;;;;;;;;;;20.50;29.40;98333.78;5056360;28;1902;-74
2022/11/30 00:18:30;;;;;;;;;;;;;;;20.38;29.38;98342.84;5056379;28;995;-74
2022/11/30 00:21:02;;;;;;;;;;;;;;;20.23;30.08;98337.41;5056399;28;908;-74
2022/11/30 00:23:31;;;;;;;;;;;;;;;20.47;29.83;98348.78;5056620;28;1162;-74
2022/11/30 00:25:58;;;;;;;;;;;;;;;20.52;29.42;98353.94;5056486;28;916;-75
2022/11/30 00:28:24;;;;;;;;;;;;;;;20.65;29.38;98346.44;4994505;28;993;-75
2022/11/30 00:30:56;;;;;;;;;;;;;;;20.66;29.06;98344.41;4994162;28;1172;-74
2022/11/30 00:33:21;;;;;;;;;;;;;;;20.71;29.03;98356.03;4994244;28;1000;-74
2022/11/30 00:35:56;;;;;;;;;;;;;;;20.40;29.48;98358.13;4974483;28;1898;-74
2022/11/30 00:38:22;;;;;;;;;;;;;;;20.14;29.68;98359.75;4958954;28;1113;-74
2022/11/30 00:40:47;;;;;;;;;;;;;;;20.37;29.56;98361.84;4958905;28;1021;-74
2022/11/30 00:43:13;;;;;;;;;;;;;;;20.58;29.15;98360.72;4974874;28;945;-74
2022/11/30 00:45:39;;;;;;;;;;;;;;;20.65;28.97;98363.41;4974841;28;944;-74
2022/11/30 00:48:04;;;;;;;;;;;;;;;20.80;29.01;98370.41;4974762;28;1161;-74
2022/11/30 00:50:30;;;;;;;;;;;;;;;20.86;28.98;98378.41;4942663;28;1229;-74
2022/11/30 00:52:56;;;;;;;;;;;;;;;20.95;28.42;98375.84;4974852;28;1031;-74
2022/11/30 00:55:21;;;;;;;;;;;;;;;20.50;29.06;98376.19;4974994;28;1906;-74
2022/11/30 00:57:47;;;;;;;;;;;;;;;20.39;29.20;98375.53;4958679;28;972;-74
2022/11/30 01:00:13;;;;;;;;;;;;;;;20.26;29.67;98381.78;4974518;28;1004;-74
2022/11/30 01:02:38;;;;;;;;;;;;;;;19.19;29.28;98191.31;4993882;28;1192;-74
2022/11/30 01:05:04;;;;;;;;;;;;;;;20.64;28.99;98378.78;4994458;28;921;-74
2022/11/30 01:07:30;;;;;;;;;;;;;;;20.86;28.75;98381.25;5043322;28;880;-74
2022/11/30 01:09:55;;;;;;;;;;;;;;;20.91;28.87;98375.09;5055262;28;925;-74
2022/11/30 01:12:20;;;;;;;;;;;;;;;20.56;28.97;98365.97;5055576;28;1014;-73
2022/11/30 01:14:46;;;;;;;;;;;;;;;20.15;29.77;98364.16;5055369;28;942;-74
2022/11/30 01:17:11;;;;;;;;;;;;;;;19.99;29.82;98352.72;5055370;28;1918;-74
2022/11/30 01:19:37;;;;;;;;;;;;;;;20.24;30.02;98358.78;5055893;28;977;-74
2022/11/30 01:22:02;;;;;;;;;;;;;;;20.51;29.25;98358.00;5055622;28;909;-74
2022/11/30 01:24:28;;;;;;;;;;;;;;;20.60;29.08;98355.41;5055685;28;1017;-74
2022/11/30 01:26:53;;;;;;;;;;;;;;;20.64;29.16;98347.69;5055337;28;1003;-74
2022/11/30 01:29:19;;;;;;;;;;;;;;;20.74;28.77;98348.72;5055308;28;987;-74
2022/11/30 01:31:44;;;;;;;;;;;;;;;20.31;29.34;98332.44;5055615;28;1013;-75
2022/11/30 01:34:09;;;;;;;;;;;;;;;20.06;29.89;98327.19;5055552;28;1052;-74
2022/11/30 01:36:37;;;;;;;;;;;;;;;20.29;29.75;98324.41;5055442;28;1905;-74
2022/11/30 01:39:05;;;;;;;;;;;;;;;20.45;29.55;98314.47;5055366;28;898;-74
2022/11/30 01:41:30;;;;;;;;;;;;;;;20.65;29.20;98315.34;5054995;28;968;-74
2022/11/30 01:43:56;;;;;;;;;;;;;;;20.81;29.14;98298.47;5055123;28;1067;-75
2022/11/30 01:46:57;;;;;;;;;;;;;;;20.76;29.24;98295.34;5038825;28;983;-74
2022/11/30 01:49:30;;;;;;;;;;;;;;;20.68;29.30;98305.22;4978278;28;991;-75
2022/11/30 01:52:12;;;;;;;;;;;;;;;20.50;29.48;98308.34;4977838;28;1047;-74
2022/11/30 01:54:39;;;;;;;;;;;;;;;20.42;30.31;98313.31;4977987;28;1166;-74
2022/11/30 01:57:25;;;;;;;;;;;;;;;20.88;29.56;98323.03;4961597;28;1985;-75
2022/11/30 01:59:50;;;;;;;;;;;;;;;20.93;29.39;98327.34;4977271;28;1071;-74
2022/11/30 02:02:17;;;;;;;;;;;;;;;20.55;29.79;98322.78;4920052;29;1012;-74
2022/11/30 02:04:43;;;;;;;;;;;;;;;20.75;29.72;98317.19;4920390;29;1022;-74
2022/11/30 02:07:08;;;;;;;;;;;;;;;20.57;30.17;98315.88;4920404;29;930;-74
2022/11/30 02:09:39;;;;;;;;;;;;;;;20.52;30.35;98308.69;4920552;29;1036;-75
2022/11/30 02:12:04;;;;;;;;;;;;;;;20.79;30.11;98315.09;4920205;29;1008;-74
2022/11/30 02:14:35;;;;;;;;;;;;;;;20.73;30.10;98319.66;4919853;29;1130;-74
2022/11/30 02:17:07;;;;;;;;;;;;;;;20.63;30.17;98322.69;4900834;29;1903;-74
2022/11/30 02:19:38;;;;;;;;;;;;;;;20.47;30.36;98321.31;4885224;29;967;-74
2022/11/30 02:22:27;;;;;;;;;;;;;;;20.52;30.27;98337.78;4901289;29;983;-74
2022/11/30 02:25:08;;;;;;;;;;;;;;;20.43;31.10;98339.53;4900919;29;1093;-74
2022/11/30 02:27:43;;;;;;;;;;;;;;;20.69;30.43;98330.22;4900996;29;1035;-74
2022/11/30 02:30:13;;;;;;;;;;;;;;;20.67;30.29;98343.97;4885003;29;1007;-74
2022/11/30 02:32:43;;;;;;;;;;;;;;;20.69;30.58;98341.53;4885876;29;1013;-74
2022/11/30 02:35:08;;;;;;;;;;;;;;;20.49;30.51;98349.16;4885428;29;1059;-74
2022/11/30 02:37:34;;;;;;;;;;;;;;;20.55;30.17;98344.59;4900645;29;1911;-74
2022/11/30 02:39:59;;;;;;;;;;;;;;;20.37;30.59;98347.69;4896848;29;996;-74
2022/11/30 02:42:25;;;;;;;;;;;;;;;20.29;31.45;98351.84;4919943;29;974;-75
2022/11/30 02:44:50;;;;;;;;;;;;;;;20.55;30.97;98350.25;4919709;29;1011;-74
2022/11/30 02:47:16;;;;;;;;;;;;;;;20.65;30.67;98346.44;4910337;29;1074;-74
2022/11/30 02:49:53;;;;;;;;;;;;;;;20.71;30.29;98343.91;4957806;29;1057;-74
2022/11/30 02:52:18;;;;;;;;;;;;;;;20.29;30.96;98352.66;4957621;29;1059;-74
2022/11/30 02:54:44;;;;;;;;;;;;;;;20.42;30.50;98350.03;4941765;29;1030;-74
2022/11/30 02:57:09;;;;;;;;;;;;;;;20.48;31.14;98353.22;4957149;28;1914;-74
2022/11/30 02:59:35;;;;;;;;;;;;;;;20.75;30.27;98345.47;4957352;29;974;-74
2022/11/30 03:02:00;;;;;;;;;;;;;;;20.85;30.37;98337.22;4996555;28;927;-74
2022/11/30 03:04:26;;;;;;;;;;;;;;;21.07;29.76;98329.94;5057917;28;871;-74
2022/11/30 03:06:51;;;;;;;;;;;;;;;20.36;30.77;98334.78;5057885;28;894;-75
2022/11/30 03:09:17;;;;;;;;;;;;;;;20.44;30.52;98336.28;5057849;28;1026;-74
2022/11/30 03:11:42;;;;;;;;;;;;;;;20.43;30.60;98337.50;5057857;28;947;-75
2022/11/30 03:14:07;;;;;;;;;;;;;;;20.51;30.70;98335.38;5057718;28;1085;-74
2022/11/30 03:16:33;;;;;;;;;;;;;;;20.67;30.58;98338.31;5057440;28;1909;-74
2022/11/30 03:18:58;;;;;;;;;;;;;;;20.83;30.29;98336.84;5057553;28;1106;-75
2022/11/30 03:21:24;;;;;;;;;;;;;;;20.69;30.05;98335.88;5057876;28;937;-74
2022/11/30 03:23:49;;;;;;;;;;;;;;;20.62;30.41;98341.63;5057833;28;945;-74
2022/11/30 03:26:14;;;;;;;;;;;;;;;20.53;30.42;98349.91;5039591;28;1007;-74
2022/11/30 03:28:40;;;;;;;;;;;;;;;20.61;30.53;98348.53;5057690;28;1088;-74
2022/11/30 03:31:05;;;;;;;;;;;;;;;20.73;30.41;98345.09;5057069;28;932;-75
2022/11/30 03:33:31;;;;;;;;;;;;;;;20.85;29.95;98348.53;5039694;28;1029;-74
2022/11/30 03:35:57;;;;;;;;;;;;;;;20.51;30.31;98352.34;5057231;28;1902;-74
2022/11/30 03:38:23;;;;;;;;;;;;;;;20.40;30.30;98335.53;5057259;28;900;-74
2022/11/30 03:40:48;;;;;;;;;;;;;;;20.37;30.51;98342.06;5057689;28;1037;-74
2022/11/30 03:43:14;;;;;;;;;;;;;;;20.61;30.73;98340.06;5057121;28;956;-74
2022/11/30 03:45:39;;;;;;;;;;;;;;;20.54;30.38;98328.88;5057067;28;1105;-74
2022/11/30 03:48:05;;;;;;;;;;;;;;;20.80;30.08;98330.81;5057157;28;879;-74
2022/11/30 03:50:30;;;;;;;;;;;;;;;20.95;29.99;98341.88;5057134;28;871;-74
2022/11/30 03:52:55;;;;;;;;;;;;;;;20.47;30.29;98329.00;5057193;28;929;-74
2022/11/30 03:55:21;;;;;;;;;;;;;;;20.51;30.09;98333.34;5057380;28;962;-74
2022/11/30 03:57:46;;;;;;;;;;;;;;;20.56;30.51;98320.75;5056755;28;987;-74
2022/11/30 04:00:12;;;;;;;;;;;;;;;20.64;30.55;98321.44;5057292;28;988;-74
2022/11/30 04:02:37;;;;;;;;;;;;;;;20.55;30.62;98330.47;5039021;28;997;-74
2022/11/30 04:05:03;;;;;;;;;;;;;;;20.75;30.04;98320.00;5014503;28;1000;-74
2022/11/30 04:07:28;;;;;;;;;;;;;;;20.24;30.51;98316.41;5014702;28;1014;-74
2022/11/30 04:09:54;;;;;;;;;;;;;;;20.41;30.21;98319.38;5013740;28;1012;-74
2022/11/30 04:12:19;;;;;;;;;;;;;;;20.40;30.65;98314.94;5014503;28;958;-75
2022/11/30 04:14:45;;;;;;;;;;;;;;;20.61;30.33;98323.09;5014364;28;1053;-74
2022/11/30 04:17:10;;;;;;;;;;;;;;;20.73;30.17;98319.66;5014263;28;1910;-74
2022/11/30 04:19:36;;;;;;;;;;;;;;;20.74;30.06;98307.09;5014450;28;1076;-74
2022/11/30 04:22:01;;;;;;;;;;;;;;;20.63;29.92;98303.69;5014189;28;1006;-74
2022/11/30 04:24:26;;;;;;;;;;;;;;;20.45;30.20;98314.47;5014467;28;1058;-74
2022/11/30 04:26:52;;;;;;;;;;;;;;;20.32;30.31;98333.25;5014308;28;1153;-74
2022/11/30 04:29:17;;;;;;;;;;;;;;;20.44;30.91;98335.47;5014361;28;1102;-74
2022/11/30 04:31:43;;;;;;;;;;;;;;;20.59;30.33;98336.88;5014196;28;961;-74
2022/11/30 04:34:08;;;;;;;;;;;;;;;20.90;29.74;98345.22;5014169;28;1041;-75
2022/11/30 04:36:34;;;;;;;;;;;;;;;20.97;29.69;98350.72;5044114;28;1906;-74
2022/11/30 04:38:59;;;;;;;;;;;;;;;20.47;30.21;98345.97;5056464;28;798;-74
2022/11/30 04:41:25;;;;;;;;;;;;;;;20.45;29.90;98337.06;5055948;28;856;-74
2022/11/30 04:43:50;;;;;;;;;;;;;;;20.47;30.45;98340.31;5056189;28;1033;-74
2022/11/30 04:46:16;;;;;;;;;;;;;;;20.59;30.32;98342.53;5056611;28;901;-74
2022/11/30 04:48:41;;;;;;;;;;;;;;;20.63;30.13;98360.22;5020545;28;1019;-74
2022/11/30 04:51:07;;;;;;;;;;;;;;;20.73;29.87;98355.63;5056259;28;935;-74
2022/11/30 04:53:32;;;;;;;;;;;;;;;20.90;29.63;98346.00;5055943;28;977;-74
2022/11/30 04:55:58;;;;;;;;;;;;;;;20.64;29.73;98356.16;5037673;28;1899;-74
2022/11/30 04:58:23;;;;;;;;;;;;;;;20.51;29.95;98363.63;5056046;28;970;-74
2022/11/30 05:00:49;;;;;;;;;;;;;;;20.64;30.18;98364.66;5055632;28;980;-74
2022/11/30 05:03:14;;;;;;;;;;;;;;;20.56;30.03;98360.31;5035666;28;1539;-74
2022/11/30 05:05:40;;;;;;;;;;;;;;;20.89;29.56;98349.28;5052817;28;1471;-74
2022/11/30 05:08:05;;;;;;;;;;;;;;;20.88;29.61;98347.66;5021549;28;1062;-75
2022/11/30 05:10:32;;;;;;;;;;;;;;;20.41;29.88;98341.97;5055377;28;956;-74
2022/11/30 05:12:58;;;;;;;;;;;;;;;20.46;30.13;98355.63;5055225;28;1603;-74
2022/11/30 05:15:23;;;;;;;;;;;;;;;20.54;29.94;98363.59;5037998;28;955;-74
2022/11/30 05:17:49;;;;;;;;;;;;;;;20.51;30.35;98346.69;5055288;28;1906;-75
2022/11/30 05:20:14;;;;;;;;;;;;;;;20.74;29.67;98348.72;5055414;28;975;-74
2022/11/30 05:22:40;;;;;;;;;;;;;;;20.91;29.47;98346.81;5055504;28;973;-74
2022/11/30 05:25:05;;;;;;;;;;;;;;;20.49;30.04;98332.19;5037462;28;943;-74
2022/11/30 05:27:31;;;;;;;;;;;;;;;20.45;30.00;98348.38;5054702;28;1494;-74
2022/11/30 05:29:57;;;;;;;;;;;;;;;20.34;30.16;98359.06;5054741;28;1401;-75
2022/11/30 05:32:22;;;;;;;;;;;;;;;20.51;30.23;98358.00;5055144;28;948;-74
2022/11/30 05:34:48;;;;;;;;;;;;;;;20.75;29.81;98362.44;5003756;28;1175;-75
2022/11/30 05:37:13;;;;;;;;;;;;;;;20.79;29.51;98366.00;5055122;28;1990;-74
2022/11/30 05:39:39;;;;;;;;;;;;;;;20.43;30.12;98362.16;5055170;28;950;-74
2022/11/30 05:42:04;;;;;;;;;;;;;;;20.20;30.12;98375.00;5055437;28;908;-74
2022/11/30 05:44:30;;;;;;;;;;;;;;;20.51;29.75;98372.13;5054357;28;1419;-74
2022/11/30 05:46:55;;;;;;;;;;;;;;;20.80;29.91;98380.94;5055340;28;950;-74
2022/11/30 05:49:21;;;;;;;;;;;;;;;20.64;29.79;98378.78;5055020;28;940;-74
2022/11/30 05:51:46;;;;;;;;;;;;;;;20.73;29.76;98376.22;5055598;28;930;-74
2022/11/30 05:54:12;;;;;;;;;;;;;;;20.74;29.66;98383.47;5037489;28;1105;-75
2022/11/30 05:56:37;;;;;;;;;;;;;;;20.36;29.95;98384.84;5044205;28;1991;-75
2022/11/30 05:59:03;;;;;;;;;;;;;;;20.57;29.44;98389.41;5017391;28;1823;-74
2022/11/30 06:01:28;;;;;;;;;;;;;;;20.73;29.92;98381.88;5035034;28;918;-74
2022/11/30 06:03:54;;;;;;;;;;;;;;;20.59;29.74;98382.09;5034592;28;1644;-75
2022/11/30 06:06:20;;;;;;;;;;;;;;;20.94;29.15;98388.38;5017247;28;975;-74
2022/11/30 06:08:45;;;;;;;;;;;;;;;21.05;28.95;98386.16;5004207;28;1634;-74
2022/11/30 06:11:11;;;;;;;;;;;;;;;20.68;29.45;98376.69;4964603;28;987;-74
2022/11/30 06:13:37;;;;;;;;;;;;;;;20.39;29.86;98378.34;5015792;28;960;-74
2022/11/30 06:16:03;;;;;;;;;;;;;;;20.41;29.58;98381.53;5015387;28;1983;-74
2022/11/30 06:18:28;;;;;;;;;;;;;;;20.36;29.87;98387.69;5015529;28;916;-75
2022/11/30 06:20:54;;;;;;;;;;;;;;;20.52;29.96;98385.84;5015428;28;972;-74
2022/11/30 06:23:19;;;;;;;;;;;;;;;20.44;30.00;98387.16;5020127;28;1470;-74
2022/11/30 06:25:45;;;;;;;;;;;;;;;20.78;29.59;98401.16;5034981;28;1464;-74
2022/11/30 06:28:10;;;;;;;;;;;;;;;20.80;29.37;98392.25;5054405;28;1091;-74
2022/11/30 06:30:36;;;;;;;;;;;;;;;20.22;29.89;98341.47;5036917;28;1089;-74
2022/11/30 06:33:01;;;;;;;;;;;;;;;20.44;29.96;98412.59;5034601;28;1639;-75
2022/11/30 06:35:27;;;;;;;;;;;;;;;20.38;29.85;98405.03;4983544;28;1627;-74
2022/11/30 06:37:53;;;;;;;;;;;;;;;20.65;30.02;98417.13;4996589;28;1586;-74
2022/11/30 06:40:19;;;;;;;;;;;;;;;20.74;29.73;98410.94;5016102;28;1776;-74
2022/11/30 06:42:44;;;;;;;;;;;;;;;20.84;29.33;98420.47;5016420;28;1004;-74
2022/11/30 06:45:09;;;;;;;;;;;;;;;20.97;29.17;98421.44;5016371;28;1010;-75
2022/11/30 06:47:35;;;;;;;;;;;;;;;20.65;29.27;98413.50;4983635;28;1038;-74
2022/11/30 06:50:00;;;;;;;;;;;;;;;20.50;29.74;98416.56;5016281;28;937;-75
2022/11/30 06:52:26;;;;;;;;;;;;;;;20.33;29.67;98430.94;5016391;28;1947;-74
2022/11/30 06:54:51;;;;;;;;;;;;;;;20.51;30.03;98425.84;5015014;28;1013;-75
2022/11/30 06:57:17;;;;;;;;;;;;;;;20.68;29.70;98423.97;5014847;28;1976;-74
2022/11/30 06:59:42;;;;;;;;;;;;;;;20.89;29.49;98428.47;5015827;28;1100;-74
2022/11/30 07:02:09;;;;;;;;;;;;;;;20.44;29.73;98431.56;5016010;28;1024;-75
2022/11/30 07:04:35;;;;;;;;;;;;;;;20.26;29.98;98421.34;4999652;28;883;-74
2022/11/30 07:07:00;;;;;;;;;;;;;;;20.30;29.84;98427.72;5030548;28;1472;-74
2022/11/30 07:09:26;;;;;;;;;;;;;;;20.66;29.38;98430.03;5037897;28;917;-74
2022/11/30 07:11:51;;;;;;;;;;;;;;;20.66;29.49;98427.22;5038096;28;924;-74
2022/11/30 07:14:16;;;;;;;;;;;;;;;20.77;29.39;98427.81;5037897;28;905;-75
2022/11/30 07:16:42;;;;;;;;;;;;;;;20.79;28.97;98427.41;5016972;28;1910;-75
2022/11/30 07:19:07;;;;;;;;;;;;;;;20.81;29.23;98431.41;5038203;28;912;-74
2022/11/30 07:21:33;;;;;;;;;;;;;;;20.29;29.50;98437.44;5037822;28;1714;-75
2022/11/30 07:26:42;;;;;;;;;;;;;;;20.53;29.75;98434.69;5037690;28;1001;-74
2022/11/30 07:29:08;;;;;;;;;;;;;;;20.39;29.54;98406.63;5036897;28;904;-74
2022/11/30 07:31:33;;;;;;;;;;;;;;;20.65;29.04;98431.28;5038045;28;939;-74
2022/11/30 07:34:02;;;;;;;;;;;;;;;20.70;29.01;98439.28;5037475;28;1886;-74
2022/11/30 07:36:30;;;;;;;;;;;;;;;20.61;28.89;98436.19;5036326;28;1991;-75
2022/11/30 07:38:55;;;;;;;;;;;;;;;20.46;29.32;98426.28;5037512;28;921;-74
2022/11/30 07:41:21;;;;;;;;;;;;;;;20.53;29.01;98429.06;5037292;28;938;-74
2022/11/30 07:43:46;;;;;;;;;;;;;;;20.37;29.54;98432.50;5036079;28;926;-74
2022/11/30 07:46:12;;;;;;;;;;;;;;;20.59;29.03;98438.63;5037458;28;1015;-74
2022/11/30 07:48:38;;;;;;;;;;;;;;;20.63;28.97;98430.91;5034634;28;1661;-74
2022/11/30 07:51:07;;;;;;;;;;;;;;;20.74;28.97;98440.00;5037316;28;1871;-75
2022/11/30 07:53:32;;;;;;;;;;;;;;;20.36;29.13;98435.72;5037036;28;859;-75
2022/11/30 07:56:04;;;;;;;;;;;;;;;20.07;29.80;98441.00;5037032;28;1910;-74
2022/11/30 07:58:30;;;;;;;;;;;;;;;20.00;29.94;98441.88;5037500;28;1120;-74
2022/11/30 08:00:59;;;;;;;;;;;;;;;20.24;29.53;98440.72;5035833;28;885;-75
2022/11/30 08:03:25;;;;;;;;;;;;;;;20.42;29.13;98442.53;5037116;28;966;-74
2022/11/30 08:05:50;;;;;;;;;;;;;;;20.68;28.71;98441.75;5034932;28;998;-74
2022/11/30 08:08:16;;;;;;;;;;;;;;;20.78;28.53;98445.63;5036094;28;1632;-74
2022/11/30 08:10:41;;;;;;;;;;;;;;;20.86;28.54;98446.28;5036897;28;924;-74
2022/11/30 08:13:06;;;;;;;;;;;;;;;20.34;28.91;98435.34;5036700;28;921;-74
2022/11/30 08:15:32;;;;;;;;;;;;;;;20.22;29.26;98443.19;5036463;28;1992;-74
2022/11/30 08:17:59;;;;;;;;;;;;;;;20.02;29.42;98445.09;5036686;28;948;-74
2022/11/30 08:20:24;;;;;;;;;;;;;;;20.42;29.13;98445.34;5035516;28;887;-74
2022/11/30 08:22:51;;;;;;;;;;;;;;;20.45;29.00;98444.47;5035043;28;1545;-75
2022/11/30 08:25:17;;;;;;;;;;;;;;;20.57;29.02;98440.28;5036586;28;932;-74
2022/11/30 08:27:42;;;;;;;;;;;;;;;20.62;28.68;98449.06;5036559;28;928;-74
2022/11/30 08:30:08;;;;;;;;;;;;;;;20.65;28.75;98453.88;5036690;28;980;-74
2022/11/30 08:32:33;;;;;;;;;;;;;;;20.28;28.89;98441.50;5035915;28;1008;-74
2022/11/30 08:34:59;;;;;;;;;;;;;;;20.24;29.12;98445.59;5035136;28;1522;-74
2022/11/30 08:37:24;;;;;;;;;;;;;;;20.24;29.36;98439.94;5053271;28;1966;-74
2022/11/30 08:39:50;;;;;;;;;;;;;;;20.52;29.02;98436.72;5056423;28;943;-74
2022/11/30 08:42:15;;;;;;;;;;;;;;;20.46;29.14;98441.25;5055969;28;969;-74
2022/11/30 08:44:41;;;;;;;;;;;;;;;20.72;28.50;98439.63;5056095;28;1023;-74
2022/11/30 08:47:06;;;;;;;;;;;;;;;20.80;28.35;98437.50;5038110;28;1106;-74
2022/11/30 08:49:31;;;;;;;;;;;;;;;20.70;28.60;98436.44;5054887;28;1393;-75
2022/11/30 08:51:57;;;;;;;;;;;;;;;20.94;28.23;98434.44;5020727;28;906;-75
2022/11/30 08:54:22;;;;;;;;;;;;;;;20.78;28.32;98432.28;5055663;28;1002;-74
2022/11/30 08:56:48;;;;;;;;;;;;;;;20.48;28.61;98433.16;5055371;28;1926;-74
2022/11/30 08:59:13;;;;;;;;;;;;;;;20.26;29.08;98431.81;5056080;28;943;-74
2022/11/30 09:01:41;;;;;;;;;;;;;;;20.36;29.15;98425.22;5047941;28;1490;-75
2022/11/30 09:04:06;;;;;;;;;;;;;;;20.58;28.90;98425.75;5036083;28;974;-74
2022/11/30 09:06:32;;;;;;;;;;;;;;;20.64;28.58;98429.69;5000872;28;968;-74
2022/11/30 09:08:57;;;;;;;;;;;;;;;20.65;28.47;98428.44;5035834;28;895;-74
2022/11/30 09:11:27;;;;;;;;;;;;;;;20.70;28.50;98433.63;5035659;28;964;-74
2022/11/30 09:13:52;;;;;;;;;;;;;;;20.89;28.03;98434.13;5035634;28;968;-74
2022/11/30 09:16:18;;;;;;;;;;;;;;;20.46;28.72;98429.94;5040013;28;1909;-75
2022/11/30 09:18:44;;;;;;;;;;;;;;;20.14;29.01;98421.91;5055694;28;999;-74
2022/11/30 09:21:10;;;;;;;;;;;;;;;20.32;29.25;98429.34;5055432;28;905;-74
2022/11/30 09:23:36;;;;;;;;;;;;;;;20.44;28.86;98425.91;5038040;28;872;-74
2022/11/30 09:26:02;;;;;;;;;;;;;;;20.59;28.56;98438.63;5055195;28;968;-74
2022/11/30 09:28:29;;;;;;;;;;;;;;;20.59;28.57;98433.00;5055375;28;907;-74
2022/11/30 09:31:01;;;;;;;;;;;;;;;20.81;28.13;98439.09;5018396;28;1579;-74
2022/11/30 09:33:27;;;;;;;;;;;;;;;20.53;28.38;98423.41;5054816;28;1409;-74
2022/11/30 09:35:59;;;;;;;;;;;;;;;20.26;29.00;98415.69;5054633;28;1902;-74
2022/11/30 09:38:24;;;;;;;;;;;;;;;20.28;29.00;98430.19;5055253;28;900;-74
2022/11/30 09:40:52;;;;;;;;;;;;;;;20.41;29.09;98423.94;5055583;28;1032;-74
2022/11/30 09:43:37;;;;;;;;;;;;;;;20.44;28.71;98420.28;5036794;28;1194;-75
2022/11/30 09:46:04;;;;;;;;;;;;;;;20.57;28.68;98412.81;5055178;28;870;-74
2022/11/30 09:48:36;;;;;;;;;;;;;;;20.63;28.48;98422.44;5037563;28;931;-74
2022/11/30 09:51:04;;;;;;;;;;;;;;;20.46;28.39;98417.81;5054895;28;882;-75
2022/11/30 09:53:38;;;;;;;;;;;;;;;20.26;28.96;98412.03;5020962;28;960;-74
2022/11/30 09:56:05;;;;;;;;;;;;;;;20.06;29.70;98411.94;5054582;28;1906;-75
2022/11/30 09:58:36;;;;;;;;;;;;;;;20.47;28.79;98408.16;5037094;28;930;-74
2022/11/30 10:01:02;;;;;;;;;;;;;;;20.67;28.53;98411.84;5037522;28;957;-74
2022/11/30 10:03:27;;;;;;;;;;;;;;;20.70;28.36;98410.19;5036945;28;939;-74
2022/11/30 10:05:53;;;;;;;;;;;;;;;20.77;28.41;98405.22;5037088;28;938;-74
2022/11/30 10:08:42;;;;;;;;;;;;;;;20.29;28.62;98414.81;5057826;28;1010;-74
2022/11/30 10:11:26;;;;;;;;;;;;;;;20.06;29.44;98399.84;4957789;29;1592;-74
2022/11/30 10:14:10;;;;;;;;;;;;;;;20.36;29.08;98402.59;4958458;28;1003;-74
2022/11/30 10:16:45;;;;;;;;;;;;;;;20.52;28.44;98399.16;4954397;28;2123;-74
2022/11/30 10:19:30;;;;;;;;;;;;;;;20.61;28.51;98407.09;4977627;28;1002;-74
2022/11/30 10:21:59;;;;;;;;;;;;;;;20.72;28.22;98399.25;4977669;28;1045;-74
2022/11/30 10:24:34;;;;;;;;;;;;;;;20.84;28.08;98400.69;4970536;28;1337;-75
2022/11/30 10:27:01;;;;;;;;;;;;;;;20.46;28.39;98400.84;4941526;29;1425;-74
2022/11/30 10:29:30;;;;;;;;;;;;;;;20.04;29.09;98403.06;4942287;29;943;-74
2022/11/30 10:31:57;;;;;;;;;;;;;;;20.32;29.03;98401.09;4958064;29;1046;-74
2022/11/30 10:34:23;;;;;;;;;;;;;;;20.34;28.71;98404.28;4942201;29;1058;-75
2022/11/30 10:36:51;;;;;;;;;;;;;;;20.64;28.21;98400.59;4957499;28;1942;-74
2022/11/30 10:39:18;;;;;;;;;;;;;;;20.81;28.08;98403.13;4940439;28;1475;-74
2022/11/30 10:41:47;;;;;;;;;;;;;;;20.67;28.11;98397.69;4942116;29;1022;-74
2022/11/30 10:44:17;;;;;;;;;;;;;;;20.72;28.13;98396.41;4942059;29;915;-74
2022/11/30 10:46:45;;;;;;;;;;;;;;;20.38;28.39;98390.91;4926022;29;1090;-74
2022/11/30 10:49:11;;;;;;;;;;;;;;;20.20;29.05;98389.13;5033961;28;1107;-75
2022/11/30 10:51:37;;;;;;;;;;;;;;;20.08;29.30;98398.19;5040634;28;942;-74
2022/11/30 10:54:04;;;;;;;;;;;;;;;20.44;28.67;98392.00;4995426;28;1581;-74
2022/11/30 10:56:29;;;;;;;;;;;;;;;20.61;28.53;98396.59;4983591;28;1911;-74
2022/11/30 10:58:56;;;;;;;;;;;;;;;20.67;28.26;98394.06;4996366;28;1118;-75
2022/11/30 11:01:31;;;;;;;;;;;;;;;20.75;28.28;98390.72;4996444;28;946;-75
2022/11/30 11:04:13;;;;;;;;;;;;;;;20.77;28.24;98391.06;4996223;28;1174;-74
2022/11/30 11:06:47;;;;;;;;;;;;;;;20.25;28.88;98380.16;4996324;28;1038;-74
2022/11/30 11:09:22;;;;;;;;;;;;;;;20.24;28.92;98378.56;4994388;28;1622;-74
2022/11/30 11:11:51;;;;;;;;;;;;;;;20.49;28.66;98360.47;4996362;28;991;-74
2022/11/30 11:14:17;;;;;;;;;;;;;;;20.49;28.44;98366.91;4996035;28;963;-74
2022/11/30 11:16:49;;;;;;;;;;;;;;;20.60;28.33;98361.06;4963513;28;1906;-74
2022/11/30 11:19:21;;;;;;;;;;;;;;;20.66;28.07;98353.69;4995884;28;1039;-74
2022/11/30 11:21:47;;;;;;;;;;;;;;;20.88;27.90;98351.31;4994366;28;1524;-74
2022/11/30 11:24:13;;;;;;;;;;;;;;;20.71;27.98;98355.22;5005615;28;1075;-75
2022/11/30 11:26:39;;;;;;;;;;;;;;;20.37;28.39;98358.22;5039791;28;967;-74
2022/11/30 11:29:04;;;;;;;;;;;;;;;20.14;28.84;98359.75;5053132;28;1699;-74
2022/11/30 11:31:46;;;;;;;;;;;;;;;19.97;29.51;98369.28;5039832;28;903;-74
2022/11/30 11:34:24;;;;;;;;;;;;;;;20.26;28.86;98370.47;5039704;28;1026;-74
2022/11/30 11:37:02;;;;;;;;;;;;;;;20.49;28.44;98380.25;5057377;28;1971;-74
2022/11/30 11:39:28;;;;;;;;;;;;;;;20.69;28.34;98369.81;5057005;28;1154;-74
2022/11/30 11:41:53;;;;;;;;;;;;;;;20.65;28.11;98374.72;5054764;28;1483;-74
2022/11/30 11:44:22;;;;;;;;;;;;;;;20.69;28.11;98380.31;5038923;28;970;-74
2022/11/30 11:46:52;;;;;;;;;;;;;;;20.53;28.31;98383.81;5057313;28;894;-74
2022/11/30 11:49:19;;;;;;;;;;;;;;;20.34;28.71;98387.31;5056726;28;988;-74
2022/11/30 11:51:45;;;;;;;;;;;;;;;20.41;28.56;98384.38;5057139;28;914;-74
2022/11/30 11:54:13;;;;;;;;;;;;;;;20.40;28.82;98394.09;5014687;28;1017;-74
2022/11/30 11:56:39;;;;;;;;;;;;;;;20.55;28.25;98392.66;5013209;28;1987;-74
2022/11/30 11:59:10;;;;;;;;;;;;;;;20.93;27.95;98395.25;5014620;28;995;-74
2022/11/30 12:01:49;;;;;;;;;;;;;;;21.00;27.84;98395.13;5014936;28;985;-74
2022/11/30 12:04:17;;;;;;;;;;;;;;;20.71;28.10;98389.97;4998322;28;1044;-74
2022/11/30 12:06:43;;;;;;;;;;;;;;;20.30;28.59;98396.63;5014906;28;1022;-74
2022/11/30 12:09:13;;;;;;;;;;;;;;;20.00;29.35;98385.38;4986667;28;1682;-74
2022/11/30 12:11:40;;;;;;;;;;;;;;;20.19;29.18;98392.38;4978952;28;948;-74
2022/11/30 12:14:24;;;;;;;;;;;;;;;20.48;28.58;98389.97;4978907;28;963;-74
2022/11/30 12:17:04;;;;;;;;;;;;;;;20.62;28.46;98392.53;4978605;28;1958;-74
2022/11/30 12:19:41;;;;;;;;;;;;;;;20.64;28.17;98390.09;4994978;28;1095;-74
2022/11/30 12:22:07;;;;;;;;;;;;;;;20.89;27.89;98394.53;4978577;28;1066;-74
2022/11/30 12:24:32;;;;;;;;;;;;;;;20.38;28.41;98396.53;5018846;28;1626;-74
2022/11/30 12:27:04;;;;;;;;;;;;;;;20.27;28.87;98391.84;5056175;28;934;-74
2022/11/30 12:29:41;;;;;;;;;;;;;;;20.40;29.05;98396.91;5021505;28;959;-74
2022/11/30 12:32:23;;;;;;;;;;;;;;;20.55;28.65;98398.31;5056794;28;880;-75
2022/11/30 12:35:01;;;;;;;;;;;;;;;20.62;28.34;98406.66;5038518;28;982;-74
2022/11/30 12:37:27;;;;;;;;;;;;;;;20.81;27.93;98405.94;5054914;28;1977;-74
2022/11/30 12:40:07;;;;;;;;;;;;;;;20.35;28.51;98417.16;5056006;28;1154;-74
2022/11/30 12:42:35;;;;;;;;;;;;;;;20.12;29.04;98410.25;5038084;28;956;-74
2022/11/30 12:45:07;;;;;;;;;;;;;;;20.08;29.07;98409.47;5055957;28;928;-74
2022/11/30 12:47:36;;;;;;;;;;;;;;;20.42;28.62;98408.59;5038450;28;1050;-74
2022/11/30 12:50:22;;;;;;;;;;;;;;;20.53;28.56;98404.41;5046529;28;1491;-74
2022/11/30 12:53:06;;;;;;;;;;;;;;;20.70;28.32;98416.66;5018619;28;909;-74
2022/11/30 12:55:39;;;;;;;;;;;;;;;20.66;28.35;98421.56;5036039;28;1106;-74
2022/11/30 12:58:18;;;;;;;;;;;;;;;20.72;28.16;98422.66;5018248;28;1967;-75
2022/11/30 13:01:03;;;;;;;;;;;;;;;20.13;29.29;98433.63;5035652;28;893;-74
2022/11/30 13:03:32;;;;;;;;;;;;;;;20.29;28.92;98431.78;5035874;28;1139;-74
2022/11/30 13:05:58;;;;;;;;;;;;;;;20.52;28.84;98433.09;5038053;28;1510;-74
2022/11/30 13:08:50;;;;;;;;;;;;;;;20.63;28.63;98432.94;5037965;28;999;-75